sensor_id;sensor_type;location;lat;lon;timestamp;temperature;humidity
20242;DHT22;10279;46.388;8.116;2024-02-04T00:02:25;7.20;99.90
20242;DHT22;10279;46.388;8.116;2024-02-04T00:04:52;7.30;99.90
20242;DHT22;10279;46.388;8.116;2024-02-04T00:07:19;7.30;99.90
20242;DHT22;10279;46.388;8.116;2024-02-04T00:09:47;7.30;99.90
20242;DHT22;10279;46.388;8.116;2024-02-04T00:12:14;7.20;99.90
20242;DHT22;10279;46.388;8.116;2024-02-04T00:14:41;7.20;99.90
20242;DHT22;10279;46.388;8.116;2024-02-04T00:17:08;7.10;99.90
20242;DHT22;10279;46.388;8.116;2024-02-04T00:19:35;7.00;99.90
20242;DHT22;10279;46.388;8.116;2024-02-04T00:22:06;7.00;99.90
20242;DHT22;10279;46.388;8.116;2024-02-04T00:24:33;7.00;99.90
20242;DHT22;10279;46.388;8.116;2024-02-04T00:27:00;7.00;99.90
20242;DHT22;10279;46.388;8.116;2024-02-04T00:29:27;7.00;99.90
20242;DHT22;10279;46.388;8.116;2024-02-04T00:31:54;6.90;99.90
20242;DHT22;10279;46.388;8.116;2024-02-04T00:34:21;6.80;99.90
20242;DHT22;10279;46.388;8.116;2024-02-04T00:36:49;6.80;99.90
20242;DHT22;10279;46.388;8.116;2024-02-04T00:39:16;6.80;99.90
20242;DHT22;10279;46.388;8.116;2024-02-04T00:41:46;6.80;99.90
20242;DHT22;10279;46.388;8.116;2024-02-04T00:44:13;6.70;99.90
20242;DHT22;10279;46.388;8.116;2024-02-04T00:46:40;6.60;99.90
20242;DHT22;10279;46.388;8.116;2024-02-04T00:49:07;6.70;99.90
20242;DHT22;10279;46.388;8.116;2024-02-04T00:51:34;6.70;99.90
20242;DHT22;10279;46.388;8.116;2024-02-04T00:54:02;6.80;99.90
20242;DHT22;10279;46.388;8.116;2024-02-04T00:56:29;6.80;99.90
20242;DHT22;10279;46.388;8.116;2024-02-04T00:58:56;6.70;99.90
20242;DHT22;10279;46.388;8.116;2024-02-04T01:01:23;6.70;99.90
20242;DHT22;10279;46.388;8.116;2024-02-04T01:03:50;6.70;99.90
20242;DHT22;10279;46.388;8.116;2024-02-04T01:06:17;6.70;99.90
20242;DHT22;10279;46.388;8.116;2024-02-04T01:08:45;6.70;99.90
20242;DHT22;10279;46.388;8.116;2024-02-04T01:11:12;6.70;99.90
20242;DHT22;10279;46.388;8.116;2024-02-04T01:13:39;6.60;99.90
20242;DHT22;10279;46.388;8.116;2024-02-04T01:16:06;6.70;99.90
20242;DHT22;10279;46.388;8.116;2024-02-04T01:18:33;6.70;99.90
20242;DHT22;10279;46.388;8.116;2024-02-04T01:21:01;6.70;99.90
20242;DHT22;10279;46.388;8.116;2024-02-04T01:23:28;6.70;99.90
20242;DHT22;10279;46.388;8.116;2024-02-04T01:25:55;6.70;99.90
20242;DHT22;10279;46.388;8.116;2024-02-04T01:28:22;6.80;99.90
20242;DHT22;10279;46.388;8.116;2024-02-04T01:30:49;6.80;99.90
20242;DHT22;10279;46.388;8.116;2024-02-04T01:33:16;6.60;99.90
20242;DHT22;10279;46.388;8.116;2024-02-04T01:35:44;6.60;99.90
20242;DHT22;10279;46.388;8.116;2024-02-04T01:38:11;6.50;99.90
20242;DHT22;10279;46.388;8.116;2024-02-04T01:40:38;6.50;99.90
20242;DHT22;10279;46.388;8.116;2024-02-04T01:43:05;6.50;99.90
20242;DHT22;10279;46.388;8.116;2024-02-04T01:45:32;6.50;99.90
20242;DHT22;10279;46.388;8.116;2024-02-04T01:48:00;6.50;99.90
20242;DHT22;10279;46.388;8.116;2024-02-04T01:50:27;6.50;99.90
20242;DHT22;10279;46.388;8.116;2024-02-04T01:52:54;6.40;99.90
20242;DHT22;10279;46.388;8.116;2024-02-04T01:55:22;6.40;99.90
20242;DHT22;10279;46.388;8.116;2024-02-04T01:57:49;6.50;99.90
20242;DHT22;10279;46.388;8.116;2024-02-04T02:00:17;6.60;99.90
20242;DHT22;10279;46.388;8.116;2024-02-04T02:02:47;6.60;99.90
20242;DHT22;10279;46.388;8.116;2024-02-04T02:05:15;6.60;99.90
20242;DHT22;10279;46.388;8.116;2024-02-04T02:07:42;6.50;99.90
20242;DHT22;10279;46.388;8.116;2024-02-04T02:10:13;6.40;99.90
20242;DHT22;10279;46.388;8.116;2024-02-04T02:12:52;6.40;99.90
20242;DHT22;10279;46.388;8.116;2024-02-04T02:15:28;6.40;99.90
20242;DHT22;10279;46.388;8.116;2024-02-04T02:18:02;6.40;99.90
20242;DHT22;10279;46.388;8.116;2024-02-04T02:23:44;6.30;99.90
20242;DHT22;10279;46.388;8.116;2024-02-04T02:26:17;6.40;99.90
20242;DHT22;10279;46.388;8.116;2024-02-04T02:28:45;6.40;99.90
20242;DHT22;10279;46.388;8.116;2024-02-04T02:31:12;6.40;99.90
20242;DHT22;10279;46.388;8.116;2024-02-04T02:33:40;6.40;99.90
20242;DHT22;10279;46.388;8.116;2024-02-04T02:36:13;6.40;99.90
20242;DHT22;10279;46.388;8.116;2024-02-04T02:38:49;6.40;99.90
20242;DHT22;10279;46.388;8.116;2024-02-04T02:41:21;6.40;99.90
20242;DHT22;10279;46.388;8.116;2024-02-04T02:43:51;6.30;99.90
20242;DHT22;10279;46.388;8.116;2024-02-04T02:46:19;6.30;99.90
20242;DHT22;10279;46.388;8.116;2024-02-04T02:48:47;6.20;99.90
20242;DHT22;10279;46.388;8.116;2024-02-04T02:51:15;6.30;99.90
20242;DHT22;10279;46.388;8.116;2024-02-04T02:53:42;6.30;99.90
20242;DHT22;10279;46.388;8.116;2024-02-04T02:56:10;6.30;99.90
20242;DHT22;10279;46.388;8.116;2024-02-04T02:58:37;6.20;99.90
20242;DHT22;10279;46.388;8.116;2024-02-04T03:01:04;6.10;99.90
20242;DHT22;10279;46.388;8.116;2024-02-04T03:03:31;6.00;99.90
20242;DHT22;10279;46.388;8.116;2024-02-04T03:05:58;6.00;99.90
20242;DHT22;10279;46.388;8.116;2024-02-04T03:08:26;6.00;99.90
20242;DHT22;10279;46.388;8.116;2024-02-04T03:10:53;6.10;99.90
20242;DHT22;10279;46.388;8.116;2024-02-04T03:13:20;6.10;99.90
20242;DHT22;10279;46.388;8.116;2024-02-04T03:15:47;6.10;99.90
20242;DHT22;10279;46.388;8.116;2024-02-04T03:18:14;6.10;99.90
20242;DHT22;10279;46.388;8.116;2024-02-04T03:20:41;6.20;99.90
20242;DHT22;10279;46.388;8.116;2024-02-04T03:23:08;6.30;99.90
20242;DHT22;10279;46.388;8.116;2024-02-04T03:25:36;6.20;99.90
20242;DHT22;10279;46.388;8.116;2024-02-04T03:28:03;6.10;99.90
20242;DHT22;10279;46.388;8.116;2024-02-04T03:30:31;6.00;99.90
20242;DHT22;10279;46.388;8.116;2024-02-04T03:32:58;5.90;99.90
20242;DHT22;10279;46.388;8.116;2024-02-04T03:35:26;5.90;99.90
20242;DHT22;10279;46.388;8.116;2024-02-04T03:37:53;5.90;99.90
20242;DHT22;10279;46.388;8.116;2024-02-04T03:40:20;5.90;99.90
20242;DHT22;10279;46.388;8.116;2024-02-04T03:42:51;5.90;99.90
20242;DHT22;10279;46.388;8.116;2024-02-04T03:45:19;5.80;99.90
20242;DHT22;10279;46.388;8.116;2024-02-04T03:47:46;5.80;99.90
20242;DHT22;10279;46.388;8.116;2024-02-04T03:50:13;5.90;99.90
20242;DHT22;10279;46.388;8.116;2024-02-04T03:52:40;5.90;99.90
20242;DHT22;10279;46.388;8.116;2024-02-04T03:55:07;5.90;99.90
20242;DHT22;10279;46.388;8.116;2024-02-04T03:57:34;5.90;99.90
20242;DHT22;10279;46.388;8.116;2024-02-04T04:00:02;5.80;99.90
20242;DHT22;10279;46.388;8.116;2024-02-04T04:02:29;5.80;99.90
20242;DHT22;10279;46.388;8.116;2024-02-04T04:04:57;5.90;99.90
20242;DHT22;10279;46.388;8.116;2024-02-04T04:07:24;5.90;99.90
20242;DHT22;10279;46.388;8.116;2024-02-04T04:09:51;5.90;99.90
20242;DHT22;10279;46.388;8.116;2024-02-04T04:12:18;5.70;99.90
20242;DHT22;10279;46.388;8.116;2024-02-04T04:14:45;5.70;99.90
20242;DHT22;10279;46.388;8.116;2024-02-04T04:17:12;5.70;99.90
20242;DHT22;10279;46.388;8.116;2024-02-04T04:19:39;5.80;99.90
20242;DHT22;10279;46.388;8.116;2024-02-04T04:22:07;5.70;99.90
20242;DHT22;10279;46.388;8.116;2024-02-04T04:24:34;5.70;99.90
20242;DHT22;10279;46.388;8.116;2024-02-04T04:27:02;5.60;99.90
20242;DHT22;10279;46.388;8.116;2024-02-04T04:29:29;5.60;99.90
20242;DHT22;10279;46.388;8.116;2024-02-04T04:31:56;5.70;99.90
20242;DHT22;10279;46.388;8.116;2024-02-04T04:34:23;5.70;99.90
20242;DHT22;10279;46.388;8.116;2024-02-04T04:36:50;5.70;99.90
20242;DHT22;10279;46.388;8.116;2024-02-04T04:39:17;5.70;99.90
20242;DHT22;10279;46.388;8.116;2024-02-04T04:41:45;5.70;99.90
20242;DHT22;10279;46.388;8.116;2024-02-04T04:44:12;5.60;99.90
20242;DHT22;10279;46.388;8.116;2024-02-04T04:46:40;5.70;99.90
20242;DHT22;10279;46.388;8.116;2024-02-04T04:49:07;5.70;99.90
20242;DHT22;10279;46.388;8.116;2024-02-04T04:51:34;5.70;99.90
20242;DHT22;10279;46.388;8.116;2024-02-04T04:54:01;5.80;99.90
20242;DHT22;10279;46.388;8.116;2024-02-04T04:56:28;5.80;99.90
20242;DHT22;10279;46.388;8.116;2024-02-04T04:58:56;5.80;99.90
20242;DHT22;10279;46.388;8.116;2024-02-04T05:01:23;5.80;99.90
20242;DHT22;10279;46.388;8.116;2024-02-04T05:03:50;5.70;99.90
20242;DHT22;10279;46.388;8.116;2024-02-04T05:06:18;5.70;99.90
20242;DHT22;10279;46.388;8.116;2024-02-04T05:08:45;5.70;99.90
20242;DHT22;10279;46.388;8.116;2024-02-04T05:11:12;5.70;99.90
20242;DHT22;10279;46.388;8.116;2024-02-04T05:13:39;5.70;99.90
20242;DHT22;10279;46.388;8.116;2024-02-04T05:16:07;5.70;99.90
20242;DHT22;10279;46.388;8.116;2024-02-04T05:18:34;5.70;99.90
20242;DHT22;10279;46.388;8.116;2024-02-04T05:21:02;5.70;99.90
20242;DHT22;10279;46.388;8.116;2024-02-04T05:23:30;5.70;99.90
20242;DHT22;10279;46.388;8.116;2024-02-04T05:25:57;5.60;99.90
20242;DHT22;10279;46.388;8.116;2024-02-04T05:28:24;5.50;99.90
20242;DHT22;10279;46.388;8.116;2024-02-04T05:30:51;5.40;99.90
20242;DHT22;10279;46.388;8.116;2024-02-04T05:33:18;5.50;99.90
20242;DHT22;10279;46.388;8.116;2024-02-04T05:35:46;5.60;99.90
20242;DHT22;10279;46.388;8.116;2024-02-04T05:38:13;5.50;99.90
20242;DHT22;10279;46.388;8.116;2024-02-04T05:40:40;5.40;99.90
20242;DHT22;10279;46.388;8.116;2024-02-04T05:43:07;5.40;99.90
20242;DHT22;10279;46.388;8.116;2024-02-04T05:45:39;5.40;99.90
20242;DHT22;10279;46.388;8.116;2024-02-04T05:48:10;5.50;99.90
20242;DHT22;10279;46.388;8.116;2024-02-04T05:50:37;5.50;99.90
20242;DHT22;10279;46.388;8.116;2024-02-04T05:53:05;5.50;99.90
20242;DHT22;10279;46.388;8.116;2024-02-04T05:55:32;5.50;99.90
20242;DHT22;10279;46.388;8.116;2024-02-04T05:57:59;5.60;99.90
20242;DHT22;10279;46.388;8.116;2024-02-04T06:00:27;5.60;99.90
20242;DHT22;10279;46.388;8.116;2024-02-04T06:02:54;5.60;99.90
20242;DHT22;10279;46.388;8.116;2024-02-04T06:05:21;5.60;99.90
20242;DHT22;10279;46.388;8.116;2024-02-04T06:07:48;5.60;99.90
20242;DHT22;10279;46.388;8.116;2024-02-04T06:10:15;5.60;99.90
20242;DHT22;10279;46.388;8.116;2024-02-04T06:12:45;5.60;99.90
20242;DHT22;10279;46.388;8.116;2024-02-04T06:15:17;5.60;99.90
20242;DHT22;10279;46.388;8.116;2024-02-04T06:17:44;5.50;99.90
20242;DHT22;10279;46.388;8.116;2024-02-04T06:20:11;5.50;99.90
20242;DHT22;10279;46.388;8.116;2024-02-04T06:22:38;5.50;99.90
20242;DHT22;10279;46.388;8.116;2024-02-04T06:25:06;5.50;99.90
20242;DHT22;10279;46.388;8.116;2024-02-04T06:27:33;5.50;99.90
20242;DHT22;10279;46.388;8.116;2024-02-04T06:30:01;5.50;99.90
20242;DHT22;10279;46.388;8.116;2024-02-04T06:32:28;5.40;99.90
20242;DHT22;10279;46.388;8.116;2024-02-04T06:34:55;5.40;99.90
20242;DHT22;10279;46.388;8.116;2024-02-04T06:37:22;5.40;99.90
20242;DHT22;10279;46.388;8.116;2024-02-04T06:39:50;5.40;99.90
20242;DHT22;10279;46.388;8.116;2024-02-04T06:42:17;5.30;99.90
20242;DHT22;10279;46.388;8.116;2024-02-04T06:44:45;5.30;99.90
20242;DHT22;10279;46.388;8.116;2024-02-04T06:47:12;5.40;99.90
20242;DHT22;10279;46.388;8.116;2024-02-04T06:49:44;5.40;99.90
20242;DHT22;10279;46.388;8.116;2024-02-04T06:52:12;5.30;99.90
20242;DHT22;10279;46.388;8.116;2024-02-04T06:54:39;5.30;99.90
20242;DHT22;10279;46.388;8.116;2024-02-04T06:57:07;5.40;99.90
20242;DHT22;10279;46.388;8.116;2024-02-04T06:59:34;5.50;99.90
20242;DHT22;10279;46.388;8.116;2024-02-04T07:02:01;5.50;99.90
20242;DHT22;10279;46.388;8.116;2024-02-04T07:04:28;5.40;99.90
20242;DHT22;10279;46.388;8.116;2024-02-04T07:06:55;5.40;99.90
20242;DHT22;10279;46.388;8.116;2024-02-04T07:09:23;5.40;99.90
20242;DHT22;10279;46.388;8.116;2024-02-04T07:11:50;5.40;99.90
20242;DHT22;10279;46.388;8.116;2024-02-04T07:14:17;5.40;99.90
20242;DHT22;10279;46.388;8.116;2024-02-04T07:16:44;5.40;99.90
20242;DHT22;10279;46.388;8.116;2024-02-04T07:19:11;5.40;99.90
20242;DHT22;10279;46.388;8.116;2024-02-04T07:21:39;5.40;99.90
20242;DHT22;10279;46.388;8.116;2024-02-04T07:24:06;5.30;99.90
20242;DHT22;10279;46.388;8.116;2024-02-04T07:26:33;5.30;99.90
20242;DHT22;10279;46.388;8.116;2024-02-04T07:29:00;5.30;99.90
20242;DHT22;10279;46.388;8.116;2024-02-04T07:31:27;5.30;99.90
20242;DHT22;10279;46.388;8.116;2024-02-04T07:33:55;5.30;99.90
20242;DHT22;10279;46.388;8.116;2024-02-04T07:36:22;5.30;99.90
20242;DHT22;10279;46.388;8.116;2024-02-04T07:38:49;5.40;99.90
20242;DHT22;10279;46.388;8.116;2024-02-04T07:41:18;5.40;99.90
20242;DHT22;10279;46.388;8.116;2024-02-04T07:43:46;5.40;99.90
20242;DHT22;10279;46.388;8.116;2024-02-04T07:46:15;5.40;99.90
20242;DHT22;10279;46.388;8.116;2024-02-04T07:48:42;5.40;99.90
20242;DHT22;10279;46.388;8.116;2024-02-04T07:51:09;5.50;99.90
20242;DHT22;10279;46.388;8.116;2024-02-04T07:53:36;5.50;99.90
20242;DHT22;10279;46.388;8.116;2024-02-04T07:56:04;5.60;99.90
20242;DHT22;10279;46.388;8.116;2024-02-04T07:58:33;5.60;99.90
20242;DHT22;10279;46.388;8.116;2024-02-04T08:01:01;5.50;99.90
20242;DHT22;10279;46.388;8.116;2024-02-04T08:03:28;5.50;99.90
20242;DHT22;10279;46.388;8.116;2024-02-04T08:05:55;5.50;99.90
20242;DHT22;10279;46.388;8.116;2024-02-04T08:08:22;5.50;99.90
20242;DHT22;10279;46.388;8.116;2024-02-04T08:10:50;5.50;99.90
20242;DHT22;10279;46.388;8.116;2024-02-04T08:13:17;5.50;99.90
20242;DHT22;10279;46.388;8.116;2024-02-04T08:15:44;5.60;99.90
20242;DHT22;10279;46.388;8.116;2024-02-04T08:18:11;5.50;99.90
20242;DHT22;10279;46.388;8.116;2024-02-04T08:20:39;5.50;99.90
20242;DHT22;10279;46.388;8.116;2024-02-04T08:23:06;5.50;99.90
20242;DHT22;10279;46.388;8.116;2024-02-04T08:25:33;5.60;99.90
20242;DHT22;10279;46.388;8.116;2024-02-04T08:28:00;5.70;99.90
20242;DHT22;10279;46.388;8.116;2024-02-04T08:30:27;5.70;99.90
20242;DHT22;10279;46.388;8.116;2024-02-04T08:32:54;5.70;99.90
20242;DHT22;10279;46.388;8.116;2024-02-04T08:35:22;5.70;99.90
20242;DHT22;10279;46.388;8.116;2024-02-04T08:37:49;5.70;99.90
20242;DHT22;10279;46.388;8.116;2024-02-04T08:40:16;5.70;99.90
20242;DHT22;10279;46.388;8.116;2024-02-04T08:42:46;5.70;99.90
20242;DHT22;10279;46.388;8.116;2024-02-04T08:45:14;5.80;99.90
20242;DHT22;10279;46.388;8.116;2024-02-04T08:47:41;5.80;99.90
20242;DHT22;10279;46.388;8.116;2024-02-04T08:50:09;5.90;99.90
20242;DHT22;10279;46.388;8.116;2024-02-04T08:52:39;5.90;99.90
20242;DHT22;10279;46.388;8.116;2024-02-04T08:55:06;5.90;99.90
20242;DHT22;10279;46.388;8.116;2024-02-04T08:57:34;5.90;99.90
20242;DHT22;10279;46.388;8.116;2024-02-04T09:00:01;5.90;99.90
20242;DHT22;10279;46.388;8.116;2024-02-04T09:02:28;6.00;99.90
20242;DHT22;10279;46.388;8.116;2024-02-04T09:04:55;6.00;99.90
20242;DHT22;10279;46.388;8.116;2024-02-04T09:07:22;6.10;99.90
20242;DHT22;10279;46.388;8.116;2024-02-04T09:09:50;6.20;99.90
20242;DHT22;10279;46.388;8.116;2024-02-04T09:12:17;6.30;99.90
20242;DHT22;10279;46.388;8.116;2024-02-04T09:14:44;6.50;99.90
20242;DHT22;10279;46.388;8.116;2024-02-04T09:17:11;6.50;99.90
20242;DHT22;10279;46.388;8.116;2024-02-04T09:19:40;6.70;99.90
20242;DHT22;10279;46.388;8.116;2024-02-04T09:22:09;6.80;99.90
20242;DHT22;10279;46.388;8.116;2024-02-04T09:24:36;6.90;99.90
20242;DHT22;10279;46.388;8.116;2024-02-04T09:27:04;7.00;99.90
20242;DHT22;10279;46.388;8.116;2024-02-04T09:29:31;7.10;99.90
20242;DHT22;10279;46.388;8.116;2024-02-04T09:31:58;7.30;99.90
20242;DHT22;10279;46.388;8.116;2024-02-04T09:34:26;7.40;99.90
20242;DHT22;10279;46.388;8.116;2024-02-04T09:36:53;7.50;99.90
20242;DHT22;10279;46.388;8.116;2024-02-04T09:39:20;7.60;99.90
20242;DHT22;10279;46.388;8.116;2024-02-04T09:41:48;7.70;99.90
20242;DHT22;10279;46.388;8.116;2024-02-04T09:44:15;7.80;99.90
20242;DHT22;10279;46.388;8.116;2024-02-04T09:46:45;7.90;99.90
20242;DHT22;10279;46.388;8.116;2024-02-04T09:49:13;8.00;99.90
20242;DHT22;10279;46.388;8.116;2024-02-04T09:51:41;8.10;99.90
20242;DHT22;10279;46.388;8.116;2024-02-04T09:54:10;8.20;99.90
20242;DHT22;10279;46.388;8.116;2024-02-04T09:56:38;8.40;99.90
20242;DHT22;10279;46.388;8.116;2024-02-04T09:59:07;8.50;99.90
20242;DHT22;10279;46.388;8.116;2024-02-04T10:01:35;8.60;99.90
20242;DHT22;10279;46.388;8.116;2024-02-04T10:04:03;8.70;99.90
20242;DHT22;10279;46.388;8.116;2024-02-04T10:06:31;8.80;99.90
20242;DHT22;10279;46.388;8.116;2024-02-04T10:08:59;9.00;99.90
20242;DHT22;10279;46.388;8.116;2024-02-04T10:11:27;9.10;99.90
20242;DHT22;10279;46.388;8.116;2024-02-04T10:13:54;9.20;99.90
20242;DHT22;10279;46.388;8.116;2024-02-04T10:16:22;9.30;99.90
20242;DHT22;10279;46.388;8.116;2024-02-04T10:18:49;9.40;99.90
20242;DHT22;10279;46.388;8.116;2024-02-04T10:21:20;9.60;99.90
20242;DHT22;10279;46.388;8.116;2024-02-04T10:23:48;9.80;99.90
20242;DHT22;10279;46.388;8.116;2024-02-04T10:26:17;10.00;99.90
20242;DHT22;10279;46.388;8.116;2024-02-04T10:28:45;10.10;99.90
20242;DHT22;10279;46.388;8.116;2024-02-04T10:31:14;10.30;99.90
20242;DHT22;10279;46.388;8.116;2024-02-04T10:33:41;10.50;99.90
20242;DHT22;10279;46.388;8.116;2024-02-04T10:36:09;10.60;99.90
20242;DHT22;10279;46.388;8.116;2024-02-04T10:38:36;10.80;99.90
20242;DHT22;10279;46.388;8.116;2024-02-04T10:41:03;10.90;99.90
20242;DHT22;10279;46.388;8.116;2024-02-04T10:43:34;11.00;99.90
20242;DHT22;10279;46.388;8.116;2024-02-04T10:46:22;11.10;99.90
20242;DHT22;10279;46.388;8.116;2024-02-04T10:48:55;11.20;99.90
20242;DHT22;10279;46.388;8.116;2024-02-04T10:51:25;11.30;99.90
20242;DHT22;10279;46.388;8.116;2024-02-04T10:53:56;11.40;99.90
20242;DHT22;10279;46.388;8.116;2024-02-04T10:56:36;11.30;99.90
20242;DHT22;10279;46.388;8.116;2024-02-04T10:59:03;11.30;99.90
20242;DHT22;10279;46.388;8.116;2024-02-04T11:01:32;11.40;99.90
20242;DHT22;10279;46.388;8.116;2024-02-04T11:04:00;11.40;99.90
20242;DHT22;10279;46.388;8.116;2024-02-04T11:06:29;11.50;99.90
20242;DHT22;10279;46.388;8.116;2024-02-04T11:08:58;11.40;99.90
20242;DHT22;10279;46.388;8.116;2024-02-04T11:11:27;11.40;99.90
20242;DHT22;10279;46.388;8.116;2024-02-04T11:13:56;11.50;99.90
20242;DHT22;10279;46.388;8.116;2024-02-04T11:22:09;11.40;99.90
20242;DHT22;10279;46.388;8.116;2024-02-04T11:27:25;11.80;99.90
20242;DHT22;10279;46.388;8.116;2024-02-04T11:29:52;11.80;99.90
20242;DHT22;10279;46.388;8.116;2024-02-04T11:32:20;11.90;99.90
20242;DHT22;10279;46.388;8.116;2024-02-04T11:34:48;11.60;99.90
20242;DHT22;10279;46.388;8.116;2024-02-04T11:37:16;11.40;99.90
20242;DHT22;10279;46.388;8.116;2024-02-04T11:39:53;11.30;99.90
20242;DHT22;10279;46.388;8.116;2024-02-04T11:42:23;11.30;99.90
20242;DHT22;10279;46.388;8.116;2024-02-04T11:44:50;11.40;99.90
20242;DHT22;10279;46.388;8.116;2024-02-04T11:47:33;11.50;99.90
20242;DHT22;10279;46.388;8.116;2024-02-04T11:50:02;11.50;99.90
20242;DHT22;10279;46.388;8.116;2024-02-04T11:52:30;11.60;99.90
20242;DHT22;10279;46.388;8.116;2024-02-04T11:54:59;11.70;99.90
20242;DHT22;10279;46.388;8.116;2024-02-04T11:57:26;11.90;99.90
20242;DHT22;10279;46.388;8.116;2024-02-04T11:59:54;12.10;99.90
20242;DHT22;10279;46.388;8.116;2024-02-04T12:02:22;12.10;99.90
20242;DHT22;10279;46.388;8.116;2024-02-04T12:04:49;12.20;99.90
20242;DHT22;10279;46.388;8.116;2024-02-04T12:07:17;12.40;99.90
20242;DHT22;10279;46.388;8.116;2024-02-04T12:09:44;12.50;99.90
20242;DHT22;10279;46.388;8.116;2024-02-04T12:12:14;12.60;99.90
20242;DHT22;10279;46.388;8.116;2024-02-04T12:14:43;12.80;99.90
20242;DHT22;10279;46.388;8.116;2024-02-04T12:17:12;13.00;99.90
20242;DHT22;10279;46.388;8.116;2024-02-04T12:19:40;13.10;99.90
20242;DHT22;10279;46.388;8.116;2024-02-04T12:22:11;13.00;99.90
20242;DHT22;10279;46.388;8.116;2024-02-04T12:24:39;13.10;99.90
20242;DHT22;10279;46.388;8.116;2024-02-04T12:27:06;13.20;99.90
20242;DHT22;10279;46.388;8.116;2024-02-04T12:29:34;13.10;99.90
20242;DHT22;10279;46.388;8.116;2024-02-04T12:32:02;13.10;99.90
20242;DHT22;10279;46.388;8.116;2024-02-04T12:34:30;13.10;99.90
20242;DHT22;10279;46.388;8.116;2024-02-04T12:37:01;13.20;99.90
20242;DHT22;10279;46.388;8.116;2024-02-04T12:39:29;13.30;99.90
20242;DHT22;10279;46.388;8.116;2024-02-04T12:42:00;13.40;99.90
20242;DHT22;10279;46.388;8.116;2024-02-04T12:44:27;13.60;99.90
20242;DHT22;10279;46.388;8.116;2024-02-04T12:46:54;13.90;99.90
20242;DHT22;10279;46.388;8.116;2024-02-04T12:49:22;13.90;99.90
20242;DHT22;10279;46.388;8.116;2024-02-04T12:51:50;13.80;99.90
20242;DHT22;10279;46.388;8.116;2024-02-04T12:54:20;13.80;99.90
20242;DHT22;10279;46.388;8.116;2024-02-04T12:56:49;13.70;99.90
20242;DHT22;10279;46.388;8.116;2024-02-04T13:01:53;13.50;99.90
20242;DHT22;10279;46.388;8.116;2024-02-04T13:04:21;13.30;99.90
20242;DHT22;10279;46.388;8.116;2024-02-04T13:06:49;13.40;99.90
20242;DHT22;10279;46.388;8.116;2024-02-04T13:09:17;13.50;99.90
20242;DHT22;10279;46.388;8.116;2024-02-04T13:11:44;13.60;99.90
20242;DHT22;10279;46.388;8.116;2024-02-04T13:14:11;13.70;99.90
20242;DHT22;10279;46.388;8.116;2024-02-04T13:16:39;13.90;99.90
20242;DHT22;10279;46.388;8.116;2024-02-04T13:19:06;13.90;99.90
20242;DHT22;10279;46.388;8.116;2024-02-04T13:21:34;13.70;99.90
20242;DHT22;10279;46.388;8.116;2024-02-04T13:24:01;13.60;99.90
20242;DHT22;10279;46.388;8.116;2024-02-04T13:26:29;13.70;99.90
20242;DHT22;10279;46.388;8.116;2024-02-04T13:28:56;13.80;99.90
20242;DHT22;10279;46.388;8.116;2024-02-04T13:31:24;13.70;99.90
20242;DHT22;10279;46.388;8.116;2024-02-04T13:33:51;13.70;99.90
20242;DHT22;10279;46.388;8.116;2024-02-04T13:36:18;13.60;99.90
20242;DHT22;10279;46.388;8.116;2024-02-04T13:38:46;13.60;99.90
20242;DHT22;10279;46.388;8.116;2024-02-04T13:41:14;13.80;99.90
20242;DHT22;10279;46.388;8.116;2024-02-04T13:43:41;14.00;99.90
20242;DHT22;10279;46.388;8.116;2024-02-04T13:46:10;14.30;99.90
20242;DHT22;10279;46.388;8.116;2024-02-04T13:48:37;14.50;99.90
20242;DHT22;10279;46.388;8.116;2024-02-04T13:51:05;14.60;99.90
20242;DHT22;10279;46.388;8.116;2024-02-04T13:53:32;14.30;99.90
20242;DHT22;10279;46.388;8.116;2024-02-04T13:56:01;14.20;99.90
20242;DHT22;10279;46.388;8.116;2024-02-04T13:58:28;14.40;99.90
20242;DHT22;10279;46.388;8.116;2024-02-04T14:00:56;14.50;99.90
20242;DHT22;10279;46.388;8.116;2024-02-04T14:03:23;14.60;99.90
20242;DHT22;10279;46.388;8.116;2024-02-04T14:05:50;14.50;99.90
20242;DHT22;10279;46.388;8.116;2024-02-04T14:08:18;14.40;99.90
20242;DHT22;10279;46.388;8.116;2024-02-04T14:10:45;14.20;99.90
20242;DHT22;10279;46.388;8.116;2024-02-04T14:13:13;14.20;99.90
20242;DHT22;10279;46.388;8.116;2024-02-04T14:15:41;14.10;99.90
20242;DHT22;10279;46.388;8.116;2024-02-04T14:18:08;13.70;99.90
20242;DHT22;10279;46.388;8.116;2024-02-04T14:20:35;13.60;99.90
20242;DHT22;10279;46.388;8.116;2024-02-04T14:23:02;13.50;99.90
20242;DHT22;10279;46.388;8.116;2024-02-04T14:25:30;13.50;99.90
20242;DHT22;10279;46.388;8.116;2024-02-04T14:27:57;13.60;99.90
20242;DHT22;10279;46.388;8.116;2024-02-04T14:30:24;13.50;99.90
20242;DHT22;10279;46.388;8.116;2024-02-04T14:32:51;13.60;99.90
20242;DHT22;10279;46.388;8.116;2024-02-04T14:35:18;13.60;99.90
20242;DHT22;10279;46.388;8.116;2024-02-04T14:37:46;13.70;99.90
20242;DHT22;10279;46.388;8.116;2024-02-04T14:40:13;13.70;99.90
20242;DHT22;10279;46.388;8.116;2024-02-04T14:42:40;13.80;99.90
20242;DHT22;10279;46.388;8.116;2024-02-04T14:45:09;13.70;99.90
20242;DHT22;10279;46.388;8.116;2024-02-04T14:47:38;13.90;99.90
20242;DHT22;10279;46.388;8.116;2024-02-04T14:50:06;14.20;99.90
20242;DHT22;10279;46.388;8.116;2024-02-04T14:52:33;14.50;99.90
20242;DHT22;10279;46.388;8.116;2024-02-04T14:55:03;14.60;99.90
20242;DHT22;10279;46.388;8.116;2024-02-04T14:57:30;14.80;99.90
20242;DHT22;10279;46.388;8.116;2024-02-04T14:59:57;15.00;99.90
20242;DHT22;10279;46.388;8.116;2024-02-04T15:02:25;15.20;99.90
20242;DHT22;10279;46.388;8.116;2024-02-04T15:04:52;15.30;99.90
20242;DHT22;10279;46.388;8.116;2024-02-04T15:07:20;15.30;99.90
20242;DHT22;10279;46.388;8.116;2024-02-04T15:09:48;15.40;99.90
20242;DHT22;10279;46.388;8.116;2024-02-04T15:12:17;15.50;99.90
20242;DHT22;10279;46.388;8.116;2024-02-04T15:14:47;15.60;99.90
20242;DHT22;10279;46.388;8.116;2024-02-04T15:17:15;15.60;99.90
20242;DHT22;10279;46.388;8.116;2024-02-04T15:19:42;15.70;99.90
20242;DHT22;10279;46.388;8.116;2024-02-04T15:22:10;15.80;99.90
20242;DHT22;10279;46.388;8.116;2024-02-04T15:24:37;15.80;99.90
20242;DHT22;10279;46.388;8.116;2024-02-04T15:27:06;15.80;99.90
20242;DHT22;10279;46.388;8.116;2024-02-04T15:29:36;15.60;99.90
20242;DHT22;10279;46.388;8.116;2024-02-04T15:32:05;15.20;99.90
20242;DHT22;10279;46.388;8.116;2024-02-04T15:34:33;14.90;99.90
20242;DHT22;10279;46.388;8.116;2024-02-04T15:37:03;15.00;99.90
20242;DHT22;10279;46.388;8.116;2024-02-04T15:39:31;15.30;99.90
20242;DHT22;10279;46.388;8.116;2024-02-04T15:41:58;16.00;99.90
20242;DHT22;10279;46.388;8.116;2024-02-04T15:44:25;16.70;99.90
20242;DHT22;10279;46.388;8.116;2024-02-04T15:46:53;16.50;99.90
20242;DHT22;10279;46.388;8.116;2024-02-04T15:49:21;15.90;99.90
20242;DHT22;10279;46.388;8.116;2024-02-04T15:51:50;15.00;99.90
20242;DHT22;10279;46.388;8.116;2024-02-04T15:54:17;14.30;99.90
20242;DHT22;10279;46.388;8.116;2024-02-04T15:56:50;13.70;99.90
20242;DHT22;10279;46.388;8.116;2024-02-04T15:59:25;13.20;99.90